sensor_id;sensor_type;location;lat;lon;timestamp;P1;durP1;ratioP1;P2;durP2;ratioP2
72194;SDS011;60095;50.180;9.032;2023-07-29T00:02:27;1.13;;;1.02;;
72194;SDS011;60095;50.180;9.032;2023-07-29T00:04:56;1.45;;;1.35;;
72194;SDS011;60095;50.180;9.032;2023-07-29T00:07:23;1.23;;;1.13;;
72194;SDS011;60095;50.180;9.032;2023-07-29T00:09:51;0.90;;;0.90;;
72194;SDS011;60095;50.180;9.032;2023-07-29T00:12:18;0.98;;;0.88;;
72194;SDS011;60095;50.180;9.032;2023-07-29T00:14:45;0.60;;;0.60;;
72194;SDS011;60095;50.180;9.032;2023-07-29T00:17:12;1.48;;;1.20;;
72194;SDS011;60095;50.180;9.032;2023-07-29T00:19:40;1.50;;;1.40;;
72194;SDS011;60095;50.180;9.032;2023-07-29T00:22:07;1.38;;;1.25;;
72194;SDS011;60095;50.180;9.032;2023-07-29T00:24:34;0.80;;;0.80;;
72194;SDS011;60095;50.180;9.032;2023-07-29T00:27:01;1.70;;;1.35;;
72194;SDS011;60095;50.180;9.032;2023-07-29T00:29:28;1.27;;;1.17;;
72194;SDS011;60095;50.180;9.032;2023-07-29T00:31:55;2.10;;;0.85;;
72194;SDS011;60095;50.180;9.032;2023-07-29T00:34:22;1.05;;;0.98;;
72194;SDS011;60095;50.180;9.032;2023-07-29T00:36:51;1.55;;;1.45;;
72194;SDS011;60095;50.180;9.032;2023-07-29T00:39:18;1.25;;;1.15;;
72194;SDS011;60095;50.180;9.032;2023-07-29T00:41:45;1.15;;;1.08;;
72194;SDS011;60095;50.180;9.032;2023-07-29T00:44:13;0.90;;;0.65;;
72194;SDS011;60095;50.180;9.032;2023-07-29T00:46:41;1.20;;;0.82;;
72194;SDS011;60095;50.180;9.032;2023-07-29T00:49:08;0.88;;;0.80;;
72194;SDS011;60095;50.180;9.032;2023-07-29T00:51:35;3.90;;;1.38;;
72194;SDS011;60095;50.180;9.032;2023-07-29T00:54:03;1.45;;;1.02;;
72194;SDS011;60095;50.180;9.032;2023-07-29T00:56:30;1.55;;;1.42;;
72194;SDS011;60095;50.180;9.032;2023-07-29T00:58:57;0.93;;;0.70;;
72194;SDS011;60095;50.180;9.032;2023-07-29T01:01:27;2.03;;;1.45;;
72194;SDS011;60095;50.180;9.032;2023-07-29T01:03:55;0.45;;;0.45;;
72194;SDS011;60095;50.180;9.032;2023-07-29T01:06:23;1.63;;;0.88;;
72194;SDS011;60095;50.180;9.032;2023-07-29T01:08:55;1.77;;;0.73;;
72194;SDS011;60095;50.180;9.032;2023-07-29T01:11:30;0.77;;;0.57;;
72194;SDS011;60095;50.180;9.032;2023-07-29T01:14:01;5.35;;;1.65;;
72194;SDS011;60095;50.180;9.032;2023-07-29T01:16:33;1.35;;;1.00;;
72194;SDS011;60095;50.180;9.032;2023-07-29T01:19:01;4.88;;;1.20;;
72194;SDS011;60095;50.180;9.032;2023-07-29T01:21:30;1.25;;;0.60;;
72194;SDS011;60095;50.180;9.032;2023-07-29T01:24:00;1.10;;;0.73;;
72194;SDS011;60095;50.180;9.032;2023-07-29T01:26:27;3.83;;;1.08;;
72194;SDS011;60095;50.180;9.032;2023-07-29T01:28:54;0.80;;;0.60;;
72194;SDS011;60095;50.180;9.032;2023-07-29T01:31:23;0.68;;;0.60;;
72194;SDS011;60095;50.180;9.032;2023-07-29T01:33:53;1.10;;;0.80;;
72194;SDS011;60095;50.180;9.032;2023-07-29T01:36:22;1.52;;;0.98;;
72194;SDS011;60095;50.180;9.032;2023-07-29T01:38:50;1.00;;;0.70;;
72194;SDS011;60095;50.180;9.032;2023-07-29T01:41:19;0.82;;;0.77;;
72194;SDS011;60095;50.180;9.032;2023-07-29T01:43:47;0.88;;;0.80;;
72194;SDS011;60095;50.180;9.032;2023-07-29T01:46:14;1.20;;;1.02;;
72194;SDS011;60095;50.180;9.032;2023-07-29T01:48:41;1.33;;;1.20;;
72194;SDS011;60095;50.180;9.032;2023-07-29T01:51:08;1.58;;;0.90;;
72194;SDS011;60095;50.180;9.032;2023-07-29T01:53:35;1.52;;;1.20;;
72194;SDS011;60095;50.180;9.032;2023-07-29T01:56:02;1.38;;;1.05;;
72194;SDS011;60095;50.180;9.032;2023-07-29T01:58:29;1.83;;;1.08;;
72194;SDS011;60095;50.180;9.032;2023-07-29T02:00:56;2.05;;;1.08;;
72194;SDS011;60095;50.180;9.032;2023-07-29T02:03:23;1.40;;;1.10;;
72194;SDS011;60095;50.180;9.032;2023-07-29T02:05:49;0.70;;;0.70;;
72194;SDS011;60095;50.180;9.032;2023-07-29T02:08:16;1.50;;;0.90;;
72194;SDS011;60095;50.180;9.032;2023-07-29T02:10:43;1.77;;;0.55;;
72194;SDS011;60095;50.180;9.032;2023-07-29T02:13:10;3.50;;;1.33;;
72194;SDS011;60095;50.180;9.032;2023-07-29T02:15:38;1.25;;;1.15;;
72194;SDS011;60095;50.180;9.032;2023-07-29T02:18:05;1.63;;;1.30;;
72194;SDS011;60095;50.180;9.032;2023-07-29T02:20:32;1.05;;;0.75;;
72194;SDS011;60095;50.180;9.032;2023-07-29T02:22:58;0.95;;;0.80;;
72194;SDS011;60095;50.180;9.032;2023-07-29T02:25:25;1.83;;;1.15;;
72194;SDS011;60095;50.180;9.032;2023-07-29T02:27:51;0.93;;;0.80;;
72194;SDS011;60095;50.180;9.032;2023-07-29T02:30:18;0.70;;;0.70;;
72194;SDS011;60095;50.180;9.032;2023-07-29T02:32:46;0.88;;;0.85;;
72194;SDS011;60095;50.180;9.032;2023-07-29T02:35:12;1.42;;;1.08;;
72194;SDS011;60095;50.180;9.032;2023-07-29T02:37:39;2.38;;;1.30;;
72194;SDS011;60095;50.180;9.032;2023-07-29T02:40:06;1.27;;;1.17;;
72194;SDS011;60095;50.180;9.032;2023-07-29T02:42:34;1.08;;;0.70;;
72194;SDS011;60095;50.180;9.032;2023-07-29T02:45:01;1.10;;;0.80;;
72194;SDS011;60095;50.180;9.032;2023-07-29T02:47:29;3.92;;;0.82;;
72194;SDS011;60095;50.180;9.032;2023-07-29T02:49:57;0.85;;;0.80;;
72194;SDS011;60095;50.180;9.032;2023-07-29T02:52:25;0.63;;;0.47;;
72194;SDS011;60095;50.180;9.032;2023-07-29T02:54:51;3.42;;;0.75;;
72194;SDS011;60095;50.180;9.032;2023-07-29T02:57:18;1.02;;;0.90;;
72194;SDS011;60095;50.180;9.032;2023-07-29T02:59:45;0.93;;;0.70;;
72194;SDS011;60095;50.180;9.032;2023-07-29T03:02:11;0.73;;;0.40;;
72194;SDS011;60095;50.180;9.032;2023-07-29T03:04:38;1.40;;;0.90;;
72194;SDS011;60095;50.180;9.032;2023-07-29T03:07:05;1.65;;;1.17;;
72194;SDS011;60095;50.180;9.032;2023-07-29T03:09:32;0.60;;;0.60;;
72194;SDS011;60095;50.180;9.032;2023-07-29T03:11:59;1.25;;;1.15;;
72194;SDS011;60095;50.180;9.032;2023-07-29T03:14:26;1.27;;;0.70;;
72194;SDS011;60095;50.180;9.032;2023-07-29T03:16:52;0.40;;;0.30;;
72194;SDS011;60095;50.180;9.032;2023-07-29T03:19:19;1.33;;;1.10;;
72194;SDS011;60095;50.180;9.032;2023-07-29T03:21:45;1.25;;;0.63;;
72194;SDS011;60095;50.180;9.032;2023-07-29T03:24:14;0.50;;;0.45;;
72194;SDS011;60095;50.180;9.032;2023-07-29T03:26:40;4.18;;;2.10;;
72194;SDS011;60095;50.180;9.032;2023-07-29T03:29:07;0.93;;;0.88;;
72194;SDS011;60095;50.180;9.032;2023-07-29T03:31:33;1.30;;;1.15;;
72194;SDS011;60095;50.180;9.032;2023-07-29T03:34:00;2.42;;;0.85;;
72194;SDS011;60095;50.180;9.032;2023-07-29T03:36:27;1.10;;;0.60;;
72194;SDS011;60095;50.180;9.032;2023-07-29T03:38:54;3.88;;;1.17;;
72194;SDS011;60095;50.180;9.032;2023-07-29T03:41:21;2.65;;;1.05;;
72194;SDS011;60095;50.180;9.032;2023-07-29T03:43:48;1.42;;;1.00;;
72194;SDS011;60095;50.180;9.032;2023-07-29T03:46:15;4.05;;;1.38;;
72194;SDS011;60095;50.180;9.032;2023-07-29T03:48:44;1.77;;;1.33;;
72194;SDS011;60095;50.180;9.032;2023-07-29T03:51:11;0.82;;;0.65;;
72194;SDS011;60095;50.180;9.032;2023-07-29T03:53:37;2.35;;;1.05;;
72194;SDS011;60095;50.180;9.032;2023-07-29T03:56:04;1.00;;;0.75;;
72194;SDS011;60095;50.180;9.032;2023-07-29T03:58:32;1.90;;;1.25;;
72194;SDS011;60095;50.180;9.032;2023-07-29T04:00:59;7.53;;;1.30;;
72194;SDS011;60095;50.180;9.032;2023-07-29T04:03:25;1.27;;;0.65;;
72194;SDS011;60095;50.180;9.032;2023-07-29T04:05:52;1.33;;;1.15;;
72194;SDS011;60095;50.180;9.032;2023-07-29T04:08:19;0.63;;;0.60;;
72194;SDS011;60095;50.180;9.032;2023-07-29T04:10:45;7.13;;;1.33;;
72194;SDS011;60095;50.180;9.032;2023-07-29T04:13:12;1.70;;;1.00;;
72194;SDS011;60095;50.180;9.032;2023-07-29T04:15:40;1.33;;;1.10;;
72194;SDS011;60095;50.180;9.032;2023-07-29T04:18:06;0.57;;;0.45;;
72194;SDS011;60095;50.180;9.032;2023-07-29T04:20:33;1.17;;;0.70;;
72194;SDS011;60095;50.180;9.032;2023-07-29T04:23:00;0.90;;;0.65;;
72194;SDS011;60095;50.180;9.032;2023-07-29T04:25:27;1.08;;;0.73;;
72194;SDS011;60095;50.180;9.032;2023-07-29T04:27:53;1.00;;;0.70;;
72194;SDS011;60095;50.180;9.032;2023-07-29T04:30:22;3.95;;;1.58;;
72194;SDS011;60095;50.180;9.032;2023-07-29T04:32:50;1.13;;;0.80;;
72194;SDS011;60095;50.180;9.032;2023-07-29T04:35:16;1.25;;;1.15;;
72194;SDS011;60095;50.180;9.032;2023-07-29T04:37:43;3.08;;;1.13;;
72194;SDS011;60095;50.180;9.032;2023-07-29T04:40:10;1.40;;;1.25;;
72194;SDS011;60095;50.180;9.032;2023-07-29T04:42:36;3.05;;;1.83;;
72194;SDS011;60095;50.180;9.032;2023-07-29T04:45:03;1.58;;;0.85;;
72194;SDS011;60095;50.180;9.032;2023-07-29T04:47:30;2.55;;;1.25;;
72194;SDS011;60095;50.180;9.032;2023-07-29T04:49:58;1.70;;;1.60;;
72194;SDS011;60095;50.180;9.032;2023-07-29T04:52:25;1.15;;;1.05;;
72194;SDS011;60095;50.180;9.032;2023-07-29T04:54:51;0.77;;;0.75;;
72194;SDS011;60095;50.180;9.032;2023-07-29T04:57:18;1.20;;;1.05;;
72194;SDS011;60095;50.180;9.032;2023-07-29T04:59:45;1.48;;;1.17;;
72194;SDS011;60095;50.180;9.032;2023-07-29T05:02:11;1.73;;;1.17;;
72194;SDS011;60095;50.180;9.032;2023-07-29T05:04:38;1.42;;;1.33;;
72194;SDS011;60095;50.180;9.032;2023-07-29T05:07:06;2.25;;;1.58;;
72194;SDS011;60095;50.180;9.032;2023-07-29T05:09:33;1.05;;;0.95;;
72194;SDS011;60095;50.180;9.032;2023-07-29T05:12:00;2.40;;;1.45;;
72194;SDS011;60095;50.180;9.032;2023-07-29T05:14:26;1.88;;;1.58;;
72194;SDS011;60095;50.180;9.032;2023-07-29T05:16:52;1.65;;;1.55;;
72194;SDS011;60095;50.180;9.032;2023-07-29T05:19:19;1.60;;;1.50;;
72194;SDS011;60095;50.180;9.032;2023-07-29T05:21:45;1.80;;;1.70;;
72194;SDS011;60095;50.180;9.032;2023-07-29T05:24:13;2.63;;;2.40;;
72194;SDS011;60095;50.180;9.032;2023-07-29T05:26:40;2.72;;;2.17;;
72194;SDS011;60095;50.180;9.032;2023-07-29T05:29:06;2.15;;;1.70;;
72194;SDS011;60095;50.180;9.032;2023-07-29T05:31:33;4.95;;;2.35;;
72194;SDS011;60095;50.180;9.032;2023-07-29T05:34:00;1.25;;;1.15;;
72194;SDS011;60095;50.180;9.032;2023-07-29T05:36:26;2.33;;;1.58;;
72194;SDS011;60095;50.180;9.032;2023-07-29T05:38:53;1.48;;;1.25;;
72194;SDS011;60095;50.180;9.032;2023-07-29T05:41:21;2.78;;;2.15;;
72194;SDS011;60095;50.180;9.032;2023-07-29T05:43:47;2.00;;;1.85;;
72194;SDS011;60095;50.180;9.032;2023-07-29T05:46:13;1.83;;;1.30;;
72194;SDS011;60095;50.180;9.032;2023-07-29T05:48:40;2.97;;;2.00;;
72194;SDS011;60095;50.180;9.032;2023-07-29T05:51:07;1.52;;;1.15;;
72194;SDS011;60095;50.180;9.032;2023-07-29T05:53:33;2.30;;;1.38;;
72194;SDS011;60095;50.180;9.032;2023-07-29T05:56:00;2.55;;;0.73;;
72194;SDS011;60095;50.180;9.032;2023-07-29T05:58:28;4.07;;;2.33;;
72194;SDS011;60095;50.180;9.032;2023-07-29T06:00:56;1.38;;;1.27;;
72194;SDS011;60095;50.180;9.032;2023-07-29T06:03:22;1.20;;;0.90;;
72194;SDS011;60095;50.180;9.032;2023-07-29T06:05:49;4.40;;;1.38;;
72194;SDS011;60095;50.180;9.032;2023-07-29T06:08:15;1.98;;;0.93;;
72194;SDS011;60095;50.180;9.032;2023-07-29T06:10:42;6.88;;;1.27;;
72194;SDS011;60095;50.180;9.032;2023-07-29T06:13:08;1.95;;;1.38;;
72194;SDS011;60095;50.180;9.032;2023-07-29T06:15:36;4.72;;;1.75;;
72194;SDS011;60095;50.180;9.032;2023-07-29T06:18:03;0.88;;;0.77;;
72194;SDS011;60095;50.180;9.032;2023-07-29T06:20:30;1.58;;;1.10;;
72194;SDS011;60095;50.180;9.032;2023-07-29T06:22:56;0.95;;;0.82;;
72194;SDS011;60095;50.180;9.032;2023-07-29T06:25:23;3.35;;;1.17;;
72194;SDS011;60095;50.180;9.032;2023-07-29T06:27:50;1.27;;;1.00;;
72194;SDS011;60095;50.180;9.032;2023-07-29T06:30:16;1.42;;;0.93;;
72194;SDS011;60095;50.180;9.032;2023-07-29T06:32:44;1.15;;;1.05;;
72194;SDS011;60095;50.180;9.032;2023-07-29T06:35:11;0.68;;;0.68;;
72194;SDS011;60095;50.180;9.032;2023-07-29T06:37:38;1.23;;;0.82;;
72194;SDS011;60095;50.180;9.032;2023-07-29T06:40:05;0.75;;;0.68;;
72194;SDS011;60095;50.180;9.032;2023-07-29T06:42:31;1.40;;;1.20;;
72194;SDS011;60095;50.180;9.032;2023-07-29T06:44:58;1.77;;;1.55;;
72194;SDS011;60095;50.180;9.032;2023-07-29T06:47:24;4.05;;;1.20;;
72194;SDS011;60095;50.180;9.032;2023-07-29T06:49:53;0.77;;;0.77;;
72194;SDS011;60095;50.180;9.032;2023-07-29T06:52:20;1.45;;;1.35;;
72194;SDS011;60095;50.180;9.032;2023-07-29T06:54:46;1.10;;;0.73;;
72194;SDS011;60095;50.180;9.032;2023-07-29T06:57:13;3.45;;;1.98;;
72194;SDS011;60095;50.180;9.032;2023-07-29T06:59:39;4.45;;;1.80;;
72194;SDS011;60095;50.180;9.032;2023-07-29T07:02:06;3.33;;;2.83;;
72194;SDS011;60095;50.180;9.032;2023-07-29T07:04:33;2.17;;;1.75;;
72194;SDS011;60095;50.180;9.032;2023-07-29T07:07:01;3.63;;;2.10;;
72194;SDS011;60095;50.180;9.032;2023-07-29T07:09:27;1.58;;;1.25;;
72194;SDS011;60095;50.180;9.032;2023-07-29T07:11:54;1.17;;;1.08;;
72194;SDS011;60095;50.180;9.032;2023-07-29T07:14:21;1.58;;;1.33;;
72194;SDS011;60095;50.180;9.032;2023-07-29T07:16:47;2.05;;;1.15;;
72194;SDS011;60095;50.180;9.032;2023-07-29T07:19:14;2.28;;;1.48;;
72194;SDS011;60095;50.180;9.032;2023-07-29T07:21:40;2.40;;;1.98;;
72194;SDS011;60095;50.180;9.032;2023-07-29T07:24:08;2.33;;;1.73;;
72194;SDS011;60095;50.180;9.032;2023-07-29T07:26:34;1.02;;;0.93;;
72194;SDS011;60095;50.180;9.032;2023-07-29T07:29:01;1.50;;;1.27;;
72194;SDS011;60095;50.180;9.032;2023-07-29T07:31:27;1.75;;;1.38;;
72194;SDS011;60095;50.180;9.032;2023-07-29T07:33:54;0.82;;;0.77;;
72194;SDS011;60095;50.180;9.032;2023-07-29T07:36:20;2.92;;;1.30;;
72194;SDS011;60095;50.180;9.032;2023-07-29T07:38:47;1.33;;;1.23;;
72194;SDS011;60095;50.180;9.032;2023-07-29T07:41:15;1.38;;;1.10;;
72194;SDS011;60095;50.180;9.032;2023-07-29T07:43:41;1.15;;;1.05;;
72194;SDS011;60095;50.180;9.032;2023-07-29T07:46:08;1.77;;;1.65;;
72194;SDS011;60095;50.180;9.032;2023-07-29T07:48:34;1.45;;;1.05;;
72194;SDS011;60095;50.180;9.032;2023-07-29T07:51:09;12.52;;;1.30;;
72194;SDS011;60095;50.180;9.032;2023-07-29T07:53:35;0.63;;;0.63;;
72194;SDS011;60095;50.180;9.032;2023-07-29T07:56:02;2.08;;;1.10;;
72194;SDS011;60095;50.180;9.032;2023-07-29T07:58:30;1.95;;;1.75;;
72194;SDS011;60095;50.180;9.032;2023-07-29T08:01:00;4.05;;;1.40;;
72194;SDS011;60095;50.180;9.032;2023-07-29T08:03:27;2.28;;;1.58;;
72194;SDS011;60095;50.180;9.032;2023-07-29T08:05:53;1.65;;;1.33;;
72194;SDS011;60095;50.180;9.032;2023-07-29T08:08:20;2.72;;;1.30;;
72194;SDS011;60095;50.180;9.032;2023-07-29T08:10:46;3.55;;;2.78;;
72194;SDS011;60095;50.180;9.032;2023-07-29T08:13:13;2.42;;;1.75;;
72194;SDS011;60095;50.180;9.032;2023-07-29T08:15:41;3.65;;;2.13;;
72194;SDS011;60095;50.180;9.032;2023-07-29T08:18:07;2.45;;;1.38;;
72194;SDS011;60095;50.180;9.032;2023-07-29T08:20:34;2.92;;;2.15;;
72194;SDS011;60095;50.180;9.032;2023-07-29T08:23:00;3.05;;;1.70;;
72194;SDS011;60095;50.180;9.032;2023-07-29T08:25:28;2.50;;;2.03;;
72194;SDS011;60095;50.180;9.032;2023-07-29T08:27:55;3.58;;;2.05;;
72194;SDS011;60095;50.180;9.032;2023-07-29T08:30:21;2.83;;;1.48;;
72194;SDS011;60095;50.180;9.032;2023-07-29T08:32:49;5.60;;;1.80;;
72194;SDS011;60095;50.180;9.032;2023-07-29T08:35:16;1.30;;;1.20;;
72194;SDS011;60095;50.180;9.032;2023-07-29T08:37:42;2.17;;;1.95;;
72194;SDS011;60095;50.180;9.032;2023-07-29T08:40:09;2.42;;;1.45;;
72194;SDS011;60095;50.180;9.032;2023-07-29T08:42:36;2.20;;;1.92;;
72194;SDS011;60095;50.180;9.032;2023-07-29T08:45:06;2.38;;;1.85;;
72194;SDS011;60095;50.180;9.032;2023-07-29T08:47:33;2.40;;;2.17;;
72194;SDS011;60095;50.180;9.032;2023-07-29T08:50:01;2.42;;;2.22;;
72194;SDS011;60095;50.180;9.032;2023-07-29T08:52:29;2.55;;;2.25;;
72194;SDS011;60095;50.180;9.032;2023-07-29T08:54:57;2.25;;;2.00;;
72194;SDS011;60095;50.180;9.032;2023-07-29T08:57:23;1.45;;;1.35;;
72194;SDS011;60095;50.180;9.032;2023-07-29T08:59:51;1.63;;;1.10;;
72194;SDS011;60095;50.180;9.032;2023-07-29T09:02:17;4.15;;;2.75;;
72194;SDS011;60095;50.180;9.032;2023-07-29T09:04:44;6.35;;;2.25;;
72194;SDS011;60095;50.180;9.032;2023-07-29T09:07:12;2.10;;;1.70;;
72194;SDS011;60095;50.180;9.032;2023-07-29T09:09:39;2.97;;;2.72;;
72194;SDS011;60095;50.180;9.032;2023-07-29T09:12:07;3.00;;;0.95;;
72194;SDS011;60095;50.180;9.032;2023-07-29T09:14:33;1.40;;;0.90;;
72194;SDS011;60095;50.180;9.032;2023-07-29T09:17:00;1.23;;;0.60;;
72194;SDS011;60095;50.180;9.032;2023-07-29T09:19:27;0.70;;;0.70;;
72194;SDS011;60095;50.180;9.032;2023-07-29T09:21:53;1.13;;;0.73;;
72194;SDS011;60095;50.180;9.032;2023-07-29T09:24:21;0.60;;;0.55;;
72194;SDS011;60095;50.180;9.032;2023-07-29T09:26:48;0.75;;;0.65;;
72194;SDS011;60095;50.180;9.032;2023-07-29T09:29:15;1.27;;;0.73;;
72194;SDS011;60095;50.180;9.032;2023-07-29T09:31:42;0.68;;;0.52;;
72194;SDS011;60095;50.180;9.032;2023-07-29T09:34:08;0.98;;;0.73;;
72194;SDS011;60095;50.180;9.032;2023-07-29T09:36:35;0.40;;;0.38;;
72194;SDS011;60095;50.180;9.032;2023-07-29T09:39:02;0.50;;;0.50;;
72194;SDS011;60095;50.180;9.032;2023-07-29T09:41:31;1.02;;;0.65;;
72194;SDS011;60095;50.180;9.032;2023-07-29T09:43:58;1.83;;;0.77;;
72194;SDS011;60095;50.180;9.032;2023-07-29T09:46:25;1.80;;;0.90;;
72194;SDS011;60095;50.180;9.032;2023-07-29T09:48:52;1.30;;;0.60;;
72194;SDS011;60095;50.180;9.032;2023-07-29T09:51:19;1.38;;;0.80;;
72194;SDS011;60095;50.180;9.032;2023-07-29T09:53:47;0.63;;;0.30;;
72194;SDS011;60095;50.180;9.032;2023-07-29T09:56:14;0.32;;;0.32;;
72194;SDS011;60095;50.180;9.032;2023-07-29T09:58:43;0.40;;;0.38;;
72194;SDS011;60095;50.180;9.032;2023-07-29T10:01:10;0.68;;;0.55;;
72194;SDS011;60095;50.180;9.032;2023-07-29T10:03:37;0.20;;;0.10;;
72194;SDS011;60095;50.180;9.032;2023-07-29T10:06:04;0.32;;;0.30;;
72194;SDS011;60095;50.180;9.032;2023-07-29T10:08:31;0.38;;;0.22;;
72194;SDS011;60095;50.180;9.032;2023-07-29T10:11:00;0.70;;;0.68;;
72194;SDS011;60095;50.180;9.032;2023-07-29T10:13:27;0.40;;;0.30;;
72194;SDS011;60095;50.180;9.032;2023-07-29T10:15:56;0.30;;;0.20;;
72194;SDS011;60095;50.180;9.032;2023-07-29T10:18:24;0.40;;;0.35;;
72194;SDS011;60095;50.180;9.032;2023-07-29T10:20:52;0.40;;;0.40;;
72194;SDS011;60095;50.180;9.032;2023-07-29T10:23:19;0.65;;;0.45;;
72194;SDS011;60095;50.180;9.032;2023-07-29T10:25:49;0.50;;;0.50;;
72194;SDS011;60095;50.180;9.032;2023-07-29T10:28:18;0.30;;;0.30;;
72194;SDS011;60095;50.180;9.032;2023-07-29T10:30:46;0.65;;;0.38;;
72194;SDS011;60095;50.180;9.032;2023-07-29T10:33:15;0.40;;;0.35;;
72194;SDS011;60095;50.180;9.032;2023-07-29T10:35:42;0.28;;;0.20;;
72194;SDS011;60095;50.180;9.032;2023-07-29T10:38:09;0.30;;;0.20;;
72194;SDS011;60095;50.180;9.032;2023-07-29T10:40:45;0.40;;;0.30;;
72194;SDS011;60095;50.180;9.032;2023-07-29T10:43:12;0.90;;;0.57;;
72194;SDS011;60095;50.180;9.032;2023-07-29T10:45:40;0.60;;;0.40;;
72194;SDS011;60095;50.180;9.032;2023-07-29T10:48:08;1.40;;;1.00;;
72194;SDS011;60095;50.180;9.032;2023-07-29T10:50:38;0.52;;;0.38;;
72194;SDS011;60095;50.180;9.032;2023-07-29T10:53:05;1.08;;;0.57;;
72194;SDS011;60095;50.180;9.032;2023-07-29T10:55:32;0.52;;;0.32;;
72194;SDS011;60095;50.180;9.032;2023-07-29T10:58:06;1.08;;;0.32;;
72194;SDS011;60095;50.180;9.032;2023-07-29T11:00:32;0.45;;;0.38;;
72194;SDS011;60095;50.180;9.032;2023-07-29T11:02:59;0.20;;;0.20;;
72194;SDS011;60095;50.180;9.032;2023-07-29T11:05:27;0.43;;;0.32;;
72194;SDS011;60095;50.180;9.032;2023-07-29T11:08:16;0.30;;;0.20;;
72194;SDS011;60095;50.180;9.032;2023-07-29T11:10:44;0.15;;;0.10;;
72194;SDS011;60095;50.180;9.032;2023-07-29T11:13:23;0.90;;;0.65;;
72194;SDS011;60095;50.180;9.032;2023-07-29T11:15:52;2.28;;;0.75;;
72194;SDS011;60095;50.180;9.032;2023-07-29T11:18:20;0.60;;;0.40;;
72194;SDS011;60095;50.180;9.032;2023-07-29T11:20:47;0.32;;;0.20;;
72194;SDS011;60095;50.180;9.032;2023-07-29T11:23:14;0.30;;;0.20;;
72194;SDS011;60095;50.180;9.032;2023-07-29T11:25:42;0.60;;;0.35;;
72194;SDS011;60095;50.180;9.032;2023-07-29T11:28:09;0.98;;;0.47;;
72194;SDS011;60095;50.180;9.032;2023-07-29T11:30:38;0.22;;;0.20;;
72194;SDS011;60095;50.180;9.032;2023-07-29T11:33:04;1.60;;;1.17;;
72194;SDS011;60095;50.180;9.032;2023-07-29T11:35:31;1.20;;;0.57;;
72194;SDS011;60095;50.180;9.032;2023-07-29T11:37:58;1.08;;;0.30;;
72194;SDS011;60095;50.180;9.032;2023-07-29T11:40:25;0.47;;;0.13;;
72194;SDS011;60095;50.180;9.032;2023-07-29T11:42:54;0.68;;;0.68;;
72194;SDS011;60095;50.180;9.032;2023-07-29T11:45:22;0.40;;;0.20;;
72194;SDS011;60095;50.180;9.032;2023-07-29T11:47:49;0.85;;;0.20;;
72194;SDS011;60095;50.180;9.032;2023-07-29T11:50:15;0.95;;;0.70;;
72194;SDS011;60095;50.180;9.032;2023-07-29T11:52:42;1.75;;;0.52;;
72194;SDS011;60095;50.180;9.032;2023-07-29T11:55:09;1.05;;;0.82;;
72194;SDS011;60095;50.180;9.032;2023-07-29T11:57:36;7.00;;;0.73;;
72194;SDS011;60095;50.180;9.032;2023-07-29T12:00:06;0.20;;;0.20;;
72194;SDS011;60095;50.180;9.032;2023-07-29T12:02:35;0.35;;;0.35;;
72194;SDS011;60095;50.180;9.032;2023-07-29T12:05:02;1.00;;;0.60;;
72194;SDS011;60095;50.180;9.032;2023-07-29T12:07:29;1.55;;;0.95;;
72194;SDS011;60095;50.180;9.032;2023-07-29T12:09:56;0.63;;;0.40;;
72194;SDS011;60095;50.180;9.032;2023-07-29T12:12:23;0.40;;;0.30;;
72194;SDS011;60095;50.180;9.032;2023-07-29T12:14:50;0.95;;;0.20;;
72194;SDS011;60095;50.180;9.032;2023-07-29T12:17:18;0.40;;;0.30;;
72194;SDS011;60095;50.180;9.032;2023-07-29T12:19:45;0.75;;;0.30;;
72194;SDS011;60095;50.180;9.032;2023-07-29T12:22:11;0.38;;;0.15;;
72194;SDS011;60095;50.180;9.032;2023-07-29T12:24:38;0.60;;;0.60;;
72194;SDS011;60095;50.180;9.032;2023-07-29T12:27:06;6.80;;;0.63;;
72194;SDS011;60095;50.180;9.032;2023-07-29T12:29:39;0.10;;;0.10;;
72194;SDS011;60095;50.180;9.032;2023-07-29T12:32:06;1.23;;;0.75;;
72194;SDS011;60095;50.180;9.032;2023-07-29T12:34:34;1.85;;;0.75;;
72194;SDS011;60095;50.180;9.032;2023-07-29T12:37:02;0.38;;;0.38;;
72194;SDS011;60095;50.180;9.032;2023-07-29T12:39:30;0.40;;;0.30;;
72194;SDS011;60095;50.180;9.032;2023-07-29T12:41:57;0.38;;;0.38;;
72194;SDS011;60095;50.180;9.032;2023-07-29T12:44:24;0.65;;;0.57;;
72194;SDS011;60095;50.180;9.032;2023-07-29T12:46:51;0.30;;;0.20;;
72194;SDS011;60095;50.180;9.032;2023-07-29T12:49:18;1.85;;;0.68;;
72194;SDS011;60095;50.180;9.032;2023-07-29T12:51:46;0.47;;;0.30;;
72194;SDS011;60095;50.180;9.032;2023-07-29T12:54:13;1.42;;;0.20;;
72194;SDS011;60095;50.180;9.032;2023-07-29T12:56:39;0.20;;;0.15;;
72194;SDS011;60095;50.180;9.032;2023-07-29T12:59:06;1.17;;;0.75;;
72194;SDS011;60095;50.180;9.032;2023-07-29T13:01:32;0.50;;;0.50;;
72194;SDS011;60095;50.180;9.032;2023-07-29T13:03:58;0.50;;;0.40;;
72194;SDS011;60095;50.180;9.032;2023-07-29T13:06:25;0.98;;;0.68;;
72194;SDS011;60095;50.180;9.032;2023-07-29T13:08:53;0.55;;;0.30;;
72194;SDS011;60095;50.180;9.032;2023-07-29T13:11:19;0.47;;;0.40;;
72194;SDS011;60095;50.180;9.032;2023-07-29T13:13:46;1.58;;;0.45;;
72194;SDS011;60095;50.180;9.032;2023-07-29T13:16:12;0.40;;;0.20;;
72194;SDS011;60095;50.180;9.032;2023-07-29T13:18:39;0.75;;;0.40;;
72194;SDS011;60095;50.180;9.032;2023-07-29T13:21:06;0.88;;;0.30;;
72194;SDS011;60095;50.180;9.032;2023-07-29T13:23:33;0.43;;;0.30;;
72194;SDS011;60095;50.180;9.032;2023-07-29T13:26:00;0.90;;;0.65;;
72194;SDS011;60095;50.180;9.032;2023-07-29T13:28:27;0.20;;;0.20;;
72194;SDS011;60095;50.180;9.032;2023-07-29T13:30:54;1.58;;;1.10;;
72194;SDS011;60095;50.180;9.032;2023-07-29T13:33:20;2.63;;;0.82;;
72194;SDS011;60095;50.180;9.032;2023-07-29T13:35:47;0.52;;;0.45;;
72194;SDS011;60095;50.180;9.032;2023-07-29T13:38:13;0.82;;;0.52;;
72194;SDS011;60095;50.180;9.032;2023-07-29T13:40:40;0.65;;;0.28;;
72194;SDS011;60095;50.180;9.032;2023-07-29T13:43:07;1.02;;;0.80;;
72194;SDS011;60095;50.180;9.032;2023-07-29T13:45:34;0.73;;;0.57;;
72194;SDS011;60095;50.180;9.032;2023-07-29T13:48:00;0.85;;;0.63;;
72194;SDS011;60095;50.180;9.032;2023-07-29T13:50:27;0.20;;;0.20;;
72194;SDS011;60095;50.180;9.032;2023-07-29T13:52:53;0.88;;;0.55;;
72194;SDS011;60095;50.180;9.032;2023-07-29T13:55:20;0.47;;;0.35;;
72194;SDS011;60095;50.180;9.032;2023-07-29T13:57:47;0.75;;;0.40;;
72194;SDS011;60095;50.180;9.032;2023-07-29T14:00:15;1.23;;;0.75;;
72194;SDS011;60095;50.180;9.032;2023-07-29T14:02:42;2.60;;;0.75;;
72194;SDS011;60095;50.180;9.032;2023-07-29T14:05:08;0.73;;;0.50;;
72194;SDS011;60095;50.180;9.032;2023-07-29T14:07:36;0.38;;;0.20;;
72194;SDS011;60095;50.180;9.032;2023-07-29T14:10:03;0.30;;;0.20;;
72194;SDS011;60095;50.180;9.032;2023-07-29T14:12:30;0.52;;;0.40;;
72194;SDS011;60095;50.180;9.032;2023-07-29T14:14:56;0.90;;;0.52;;
72194;SDS011;60095;50.180;9.032;2023-07-29T14:17:24;1.02;;;0.40;;
72194;SDS011;60095;50.180;9.032;2023-07-29T14:19:51;6.45;;;0.98;;
72194;SDS011;60095;50.180;9.032;2023-07-29T14:22:17;3.35;;;0.70;;
72194;SDS011;60095;50.180;9.032;2023-07-29T14:24:44;0.30;;;0.20;;
72194;SDS011;60095;50.180;9.032;2023-07-29T14:27:10;1.83;;;0.47;;
72194;SDS011;60095;50.180;9.032;2023-07-29T14:29:37;0.93;;;0.57;;
72194;SDS011;60095;50.180;9.032;2023-07-29T14:32:03;0.63;;;0.32;;
72194;SDS011;60095;50.180;9.032;2023-07-29T14:34:32;1.67;;;0.95;;
72194;SDS011;60095;50.180;9.032;2023-07-29T14:36:58;0.70;;;0.40;;
72194;SDS011;60095;50.180;9.032;2023-07-29T14:39:25;1.52;;;0.55;;
72194;SDS011;60095;50.180;9.032;2023-07-29T14:41:52;0.65;;;0.28;;
72194;SDS011;60095;50.180;9.032;2023-07-29T14:44:18;0.10;;;0.10;;
72194;SDS011;60095;50.180;9.032;2023-07-29T14:46:44;1.95;;;0.73;;
72194;SDS011;60095;50.180;9.032;2023-07-29T14:49:11;1.50;;;0.75;;